Time;durP1;ratioP1;P1;durP2;ratioP2;P2;SDS_P1;SDS_P2;PMS_P1;PMS_P2;Temp;Humidity;BMP_temperature;BMP_pressure;BME280_temperature;BME280_humidity;BME280_pressure;Samples;Min_cycle;Max_cycle;Signal;HPM_P1;HPM_P2
2023/08/16 00:01:31;;;;;;;43.55;19.58;;;19.50;100.00;;;;;;5032325;28;20056;-83
2023/08/16 00:03:57;;;;;;;31.10;17.48;;;19.40;100.00;;;;;;5048190;28;20128;-83
2023/08/16 00:06:24;;;;;;;29.10;17.40;;;19.40;100.00;;;;;;5028248;28;20058;-83
2023/08/16 00:08:57;;;;;;;38.15;17.85;;;19.40;100.00;;;;;;5048342;28;20069;-83
2023/08/16 00:11:26;;;;;;;42.85;19.45;;;19.40;100.00;;;;;;5047633;28;20055;-84
2023/08/16 00:13:53;;;;;;;37.85;19.38;;;19.30;100.00;;;;;;5048492;28;20060;-83
2023/08/16 00:16:20;;;;;;;34.90;18.83;;;19.30;100.00;;;;;;5042513;28;20440;-82
2023/08/16 00:18:47;;;;;;;39.55;20.65;;;19.30;100.00;;;;;;5046948;28;20110;-76
2023/08/16 00:21:14;;;;;;;37.50;21.00;;;19.30;100.00;;;;;;5040779;28;20133;-76
2023/08/16 00:23:41;;;;;;;42.15;21.50;;;19.30;100.00;;;;;;5027294;28;20063;-76
2023/08/16 00:26:08;;;;;;;37.75;21.88;;;19.40;100.00;;;;;;5025257;28;20045;-76
2023/08/16 00:28:35;;;;;;;44.13;21.83;;;19.40;100.00;;;;;;5023978;28;20204;-75
2023/08/16 00:31:02;;;;;;;36.40;21.00;;;19.40;100.00;;;;;;5028647;28;20526;-79
2023/08/16 00:33:29;;;;;;;36.55;21.15;;;19.30;100.00;;;;;;5047058;28;20049;-79
2023/08/16 00:35:56;;;;;;;44.25;21.00;;;19.40;100.00;;;;;;5028530;28;20574;-79
2023/08/16 00:38:23;;;;;;;40.90;21.15;;;19.40;100.00;;;;;;5029026;28;20061;-80
2023/08/16 00:40:51;;;;;;;40.47;19.95;;;19.40;100.00;;;;;;5025834;28;20518;-80
2023/08/16 00:43:18;;;;;;;33.08;19.65;;;19.30;100.00;;;;;;5044141;28;20114;-79
2023/08/16 00:45:47;;;;;;;35.45;19.00;;;19.30;100.00;;;;;;5029374;28;20049;-79
2023/08/16 00:48:14;;;;;;;38.35;19.77;;;19.30;100.00;;;;;;5046610;28;20045;-79
2023/08/16 00:50:42;;;;;;;37.50;19.27;;;19.30;100.00;;;;;;5028884;28;20804;-79
2023/08/16 00:53:09;;;;;;;32.95;19.17;;;19.30;100.00;;;;;;5027877;28;20041;-79
2023/08/16 00:55:37;;;;;;;40.80;18.52;;;19.30;100.00;;;;;;5044948;28;20069;-79
2023/08/16 00:58:04;;;;;;;27.83;17.70;;;19.20;100.00;;;;;;5045148;28;20045;-79
2023/08/16 01:00:31;;;;;;;35.40;18.00;;;19.20;100.00;;;;;;5028244;28;20688;-79
2023/08/16 01:02:58;;;;;;;36.00;19.00;;;19.20;100.00;;;;;;5045830;28;20151;-79
2023/08/16 01:05:25;;;;;;;27.45;15.23;;;19.20;100.00;;;;;;5025167;28;20095;-81
2023/08/16 01:07:52;;;;;;;26.25;14.00;;;19.10;100.00;;;;;;5047749;28;20129;-80
2023/08/16 01:10:32;;;;;;;24.90;12.75;;;19.10;100.00;;;;;;5047400;28;20051;-80
2023/08/16 01:13:13;;;;;;;24.80;12.88;;;19.00;100.00;;;;;;5026480;28;20049;-80
2023/08/16 01:15:46;;;;;;;22.92;11.88;;;19.00;100.00;;;;;;5042064;28;20055;-85
2023/08/16 01:18:13;;;;;;;21.83;12.48;;;19.00;100.00;;;;;;5024025;28;20065;-84
2023/08/16 01:20:41;;;;;;;28.92;12.73;;;18.90;100.00;;;;;;5028028;28;20053;-84
2023/08/16 01:23:31;;;;;;;23.85;13.38;;;18.90;100.00;;;;;;5024733;28;20048;-84
2023/08/16 01:26:07;;;;;;;21.95;13.43;;;18.80;100.00;;;;;;5029038;28;20084;-84
2023/08/16 01:28:37;;;;;;;27.73;13.50;;;18.80;100.00;;;;;;5046699;28;20072;-85
2023/08/16 01:31:04;;;;;;;26.38;15.23;;;18.70;100.00;;;;;;5049024;28;20041;-85
2023/08/16 01:33:31;;;;;;;36.47;14.43;;;18.70;100.00;;;;;;5030848;28;20605;-85
2023/08/16 01:35:58;;;;;;;28.08;14.90;;;18.70;100.00;;;;;;5029843;28;20044;-83
2023/08/16 01:38:26;;;;;;;33.92;15.90;;;18.70;100.00;;;;;;5046100;28;20057;-84
2023/08/16 01:41:02;;;;;;;28.00;15.05;;;18.60;100.00;;;;;;5046618;28;20049;-84
2023/08/16 01:43:31;;;;;;;24.73;13.15;;;18.60;100.00;;;;;;5046485;28;20083;-84
2023/08/16 01:46:00;;;;;;;29.88;14.13;;;18.60;100.00;;;;;;5028524;28;20057;-83
2023/08/16 01:48:28;;;;;;;27.80;14.18;;;18.60;100.00;;;;;;5027929;28;20383;-84
2023/08/16 01:50:55;;;;;;;25.02;13.60;;;18.60;100.00;;;;;;5028939;28;20140;-85
2023/08/16 01:53:22;;;;;;;26.02;13.35;;;18.60;100.00;;;;;;5028099;28;20069;-84
2023/08/16 01:55:49;;;;;;;25.42;14.52;;;18.50;100.00;;;;;;5023679;28;20120;-84
2023/08/16 01:58:16;;;;;;;22.67;14.27;;;18.50;100.00;;;;;;5047619;28;20049;-84
2023/08/16 02:00:43;;;;;;;23.75;12.00;;;18.50;100.00;;;;;;5051595;28;20115;-83
2023/08/16 02:03:10;;;;;;;26.83;14.00;;;18.50;100.00;;;;;;5022819;28;20069;-84
2023/08/16 02:05:37;;;;;;;26.10;14.07;;;18.40;100.00;;;;;;5035543;28;20057;-84
2023/08/16 02:08:04;;;;;;;28.52;14.07;;;18.40;100.00;;;;;;5042368;28;20041;-85
2023/08/16 02:10:31;;;;;;;26.33;12.32;;;18.40;100.00;;;;;;5032512;28;20052;-84
2023/08/16 02:12:58;;;;;;;25.05;13.40;;;18.40;100.00;;;;;;5048716;28;20661;-84
2023/08/16 02:15:25;;;;;;;29.92;13.73;;;18.40;100.00;;;;;;5047025;28;20046;-85
2023/08/16 02:17:52;;;;;;;23.30;12.80;;;18.40;100.00;;;;;;5039921;28;20102;-84
2023/08/16 02:20:19;;;;;;;27.40;13.10;;;18.40;100.00;;;;;;5043582;28;20046;-85
2023/08/16 02:22:46;;;;;;;41.95;13.38;;;18.40;100.00;;;;;;5048434;28;20049;-85
2023/08/16 02:25:13;;;;;;;23.65;12.45;;;18.30;100.00;;;;;;5032006;28;20067;-84
2023/08/16 02:27:40;;;;;;;24.65;12.95;;;18.30;100.00;;;;;;5055703;28;20048;-84
2023/08/16 02:30:07;;;;;;;31.13;13.00;;;18.30;100.00;;;;;;5030361;28;20041;-84
2023/08/16 02:32:36;;;;;;;23.13;12.20;;;18.30;100.00;;;;;;5032679;28;20053;-84
2023/08/16 02:35:03;;;;;;;22.70;11.85;;;18.30;100.00;;;;;;5056286;28;20063;-79
2023/08/16 02:37:30;;;;;;;22.75;12.63;;;18.30;100.00;;;;;;5033318;28;20045;-79
2023/08/16 02:39:57;;;;;;;27.23;12.18;;;18.30;100.00;;;;;;5035746;28;20044;-79
2023/08/16 02:42:24;;;;;;;20.15;12.40;;;18.30;100.00;;;;;;5031404;28;20132;-79
2023/08/16 02:44:51;;;;;;;26.83;13.13;;;18.30;100.00;;;;;;5030025;28;20041;-79
2023/08/16 02:47:18;;;;;;;22.02;12.68;;;18.20;100.00;;;;;;5046467;28;20774;-79
2023/08/16 02:49:45;;;;;;;29.73;13.15;;;18.20;100.00;;;;;;5032505;28;20912;-79
2023/08/16 02:52:12;;;;;;;28.20;12.60;;;18.20;100.00;;;;;;5028997;28;20492;-79
2023/08/16 02:54:40;;;;;;;28.63;14.30;;;18.20;100.00;;;;;;5030159;28;20543;-79
2023/08/16 02:57:07;;;;;;;27.80;13.23;;;18.20;100.00;;;;;;5044828;28;20449;-79
2023/08/16 02:59:41;;;;;;;26.60;13.48;;;18.20;100.00;;;;;;5053280;28;20056;-79
2023/08/16 03:02:08;;;;;;;29.47;15.63;;;18.30;100.00;;;;;;5026137;28;20049;-79
2023/08/16 03:04:39;;;;;;;32.03;14.35;;;18.30;100.00;;;;;;5029642;28;20060;-79
2023/08/16 03:07:07;;;;;;;26.80;14.20;;;18.20;100.00;;;;;;5045486;28;20389;-79
2023/08/16 03:09:35;;;;;;;30.30;15.27;;;18.20;100.00;;;;;;5038273;28;20507;-79
2023/08/16 03:12:02;;;;;;;26.23;13.18;;;18.20;100.00;;;;;;5027447;28;20126;-79
2023/08/16 03:14:29;;;;;;;30.73;13.40;;;18.20;100.00;;;;;;5043039;28;20107;-79
2023/08/16 03:16:59;;;;;;;37.10;13.90;;;18.20;100.00;;;;;;5029218;28;20460;-79
2023/08/16 03:19:26;;;;;;;23.73;13.35;;;18.20;100.00;;;;;;5029251;28;20056;-79
2023/08/16 03:21:56;;;;;;;22.67;13.82;;;18.20;100.00;;;;;;5028770;28;20103;-79
2023/08/16 03:24:23;;;;;;;25.77;13.52;;;18.20;100.00;;;;;;5029657;28;20056;-79
2023/08/16 03:26:50;;;;;;;26.58;13.05;;;18.20;100.00;;;;;;5029505;28;20138;-79
2023/08/16 03:29:18;;;;;;;31.63;12.43;;;18.20;100.00;;;;;;5024668;28;20970;-80
2023/08/16 03:31:46;;;;;;;29.05;12.43;;;18.10;100.00;;;;;;5048547;28;20055;-80
2023/08/16 03:34:13;;;;;;;25.20;12.55;;;18.10;100.00;;;;;;5026047;28;20124;-84
2023/08/16 03:36:40;;;;;;;22.63;12.32;;;18.00;100.00;;;;;;5041292;28;20053;-84
2023/08/16 03:39:29;;;;;;;30.25;13.13;;;18.00;100.00;;;;;;5026097;28;20865;-84
2023/08/16 03:41:56;;;;;;;30.55;12.18;;;17.90;100.00;;;;;;5043137;28;20063;-84
2023/08/16 03:44:23;;;;;;;27.77;13.27;;;17.90;100.00;;;;;;5031165;28;20129;-84
2023/08/16 03:46:50;;;;;;;24.70;12.82;;;17.80;100.00;;;;;;5031034;28;20520;-83
2023/08/16 03:49:17;;;;;;;26.40;12.90;;;17.80;100.00;;;;;;5030965;28;20401;-85
2023/08/16 03:51:44;;;;;;;27.75;13.80;;;17.80;100.00;;;;;;5049103;28;20049;-84
2023/08/16 03:54:11;;;;;;;27.20;13.07;;;17.70;100.00;;;;;;5030256;28;20044;-84
2023/08/16 03:56:38;;;;;;;25.85;13.00;;;17.70;100.00;;;;;;5048405;28;20095;-86
2023/08/16 03:59:05;;;;;;;30.58;13.25;;;17.70;100.00;;;;;;5049491;28;20802;-84
2023/08/16 04:01:32;;;;;;;33.40;13.85;;;17.80;100.00;;;;;;5030668;28;20088;-85
2023/08/16 04:03:59;;;;;;;25.83;14.32;;;17.70;100.00;;;;;;5047194;28;20697;-85
2023/08/16 04:06:26;;;;;;;26.02;13.20;;;17.70;100.00;;;;;;5031502;28;20061;-85
2023/08/16 04:08:53;;;;;;;25.45;13.43;;;17.80;100.00;;;;;;5030733;28;20453;-85
2023/08/16 04:11:20;;;;;;;24.67;13.15;;;17.80;100.00;;;;;;5030907;28;20040;-85
2023/08/16 04:13:46;;;;;;;30.38;13.02;;;17.80;100.00;;;;;;5047797;28;20405;-85
2023/08/16 04:16:13;;;;;;;40.80;13.68;;;17.80;100.00;;;;;;5027566;28;20506;-85
2023/08/16 04:18:40;;;;;;;28.80;14.18;;;17.80;100.00;;;;;;5026412;28;20056;-85
2023/08/16 04:21:07;;;;;;;31.10;14.55;;;17.80;100.00;;;;;;5030399;28;20099;-85
2023/08/16 04:23:34;;;;;;;24.92;12.57;;;17.80;100.00;;;;;;5031135;28;20053;-84
2023/08/16 04:26:01;;;;;;;23.05;12.95;;;17.90;100.00;;;;;;5049412;28;20129;-85
2023/08/16 04:28:29;;;;;;;26.67;12.10;;;17.90;100.00;;;;;;5048177;28;20057;-86
2023/08/16 04:30:58;;;;;;;25.77;11.80;;;17.90;100.00;;;;;;5031100;28;20045;-85
2023/08/16 04:33:25;;;;;;;23.92;12.60;;;17.90;100.00;;;;;;5030436;28;20140;-85
2023/08/16 04:35:55;;;;;;;27.95;12.13;;;17.90;100.00;;;;;;5028206;28;20741;-85
2023/08/16 04:38:22;;;;;;;24.23;12.40;;;18.00;100.00;;;;;;5045664;28;20122;-85
2023/08/16 04:40:49;;;;;;;26.02;12.85;;;18.00;100.00;;;;;;5047132;28;20119;-85
2023/08/16 04:43:18;;;;;;;27.65;13.35;;;18.00;100.00;;;;;;5037861;28;20045;-84
2023/08/16 04:45:46;;;;;;;21.95;11.38;;;18.10;100.00;;;;;;5040656;28;20049;-82
2023/08/16 04:48:13;;;;;;;22.60;11.98;;;18.10;100.00;;;;;;5023738;28;20547;-76
2023/08/16 04:50:40;;;;;;;22.00;12.40;;;18.00;100.00;;;;;;5027093;28;20163;-82
2023/08/16 04:53:07;;;;;;;22.30;12.20;;;18.00;100.00;;;;;;5024357;28;20534;-78
2023/08/16 04:55:34;;;;;;;20.17;11.93;;;18.10;100.00;;;;;;5039360;28;20147;-75
2023/08/16 04:58:01;;;;;;;20.65;11.85;;;18.10;100.00;;;;;;5031261;28;20049;-76
2023/08/16 05:00:28;;;;;;;20.77;11.65;;;18.10;100.00;;;;;;5024110;28;20132;-76
2023/08/16 05:02:55;;;;;;;22.38;11.55;;;18.10;100.00;;;;;;5042749;28;20076;-77
2023/08/16 05:05:22;;;;;;;33.83;12.18;;;18.10;100.00;;;;;;5042191;28;21724;-76
2023/08/16 05:07:49;;;;;;;19.10;11.20;;;18.10;100.00;;;;;;5039060;28;20847;-76
2023/08/16 05:10:16;;;;;;;19.85;11.00;;;18.10;100.00;;;;;;5043038;28;20114;-77
2023/08/16 05:12:43;;;;;;;25.23;12.25;;;18.10;100.00;;;;;;5042349;28;20133;-76
2023/08/16 05:15:10;;;;;;;24.08;11.10;;;18.10;100.00;;;;;;5040873;28;20413;-76
2023/08/16 05:17:38;;;;;;;19.05;10.68;;;18.10;100.00;;;;;;5040203;28;20049;-75
2023/08/16 05:20:06;;;;;;;22.98;10.68;;;18.10;100.00;;;;;;5024606;28;20507;-76
2023/08/16 05:22:33;;;;;;;26.70;11.70;;;18.10;100.00;;;;;;5048781;28;20071;-76
2023/08/16 05:25:00;;;;;;;21.73;11.65;;;18.10;100.00;;;;;;5027331;28;20129;-75
2023/08/16 05:27:28;;;;;;;21.20;11.13;;;18.20;100.00;;;;;;5027382;28;20090;-75
2023/08/16 05:29:56;;;;;;;27.20;11.73;;;18.20;100.00;;;;;;5027132;28;20083;-76
2023/08/16 05:32:24;;;;;;;20.40;11.77;;;18.20;100.00;;;;;;5043081;28;20482;-76
2023/08/16 05:34:54;;;;;;;27.77;11.73;;;18.30;100.00;;;;;;5045723;28;20553;-76
2023/08/16 05:37:21;;;;;;;25.88;11.38;;;18.30;100.00;;;;;;5042418;28;20209;-76
2023/08/16 05:39:49;;;;;;;18.27;11.10;;;18.30;100.00;;;;;;5030227;28;20045;-77
2023/08/16 05:42:15;;;;;;;20.75;10.35;;;18.40;100.00;;;;;;5038888;28;20053;-77
2023/08/16 05:44:42;;;;;;;22.42;10.50;;;18.40;100.00;;;;;;5014045;28;20139;-77
2023/08/16 05:47:12;;;;;;;20.67;10.25;;;18.50;100.00;;;;;;5019914;28;20151;-78
2023/08/16 05:49:39;;;;;;;21.75;10.07;;;18.50;100.00;;;;;;5018286;28;20930;-77
2023/08/16 05:52:06;;;;;;;19.40;9.45;;;18.50;100.00;;;;;;5037752;28;20056;-77
2023/08/16 05:54:32;;;;;;;26.05;10.13;;;18.50;100.00;;;;;;5033692;28;20524;-80
2023/08/16 05:57:00;;;;;;;20.55;9.13;;;18.60;100.00;;;;;;5050677;28;20041;-80
2023/08/16 05:59:27;;;;;;;22.58;9.85;;;18.60;100.00;;;;;;5049486;28;20046;-80
2023/08/16 06:01:54;;;;;;;20.38;8.90;;;18.70;100.00;;;;;;5029394;28;20041;-80
2023/08/16 06:04:21;;;;;;;18.10;8.07;;;18.80;100.00;;;;;;5032386;28;20049;-81
2023/08/16 06:06:49;;;;;;;15.38;8.05;;;19.00;100.00;;;;;;5030459;28;20123;-81
2023/08/16 06:09:15;;;;;;;16.15;8.88;;;19.20;98.70;;;;;;5050057;28;20124;-82
2023/08/16 06:11:44;;;;;;;18.55;7.22;;;19.30;97.70;;;;;;5028779;28;20417;-81
2023/08/16 06:14:11;;;;;;;18.13;7.30;;;19.50;96.90;;;;;;5032100;28;20098;-82
2023/08/16 06:16:38;;;;;;;12.80;7.10;;;19.70;96.40;;;;;;5048463;28;20056;-77
2023/08/16 06:19:05;;;;;;;11.98;6.10;;;20.00;95.30;;;;;;5028484;28;20811;-80
2023/08/16 06:21:32;;;;;;;12.05;5.70;;;20.40;94.00;;;;;;5055340;28;20048;-81
2023/08/16 06:23:59;;;;;;;12.88;7.50;;;20.90;91.70;;;;;;5048570;28;20532;-85
2023/08/16 06:26:25;;;;;;;9.45;4.68;;;21.30;90.20;;;;;;5046076;28;20132;-86
2023/08/16 06:28:52;;;;;;;6.78;3.10;;;21.90;87.10;;;;;;5030047;28;20049;-83
2023/08/16 06:31:19;;;;;;;13.80;3.25;;;22.30;83.90;;;;;;5051493;28;20077;-79
2023/08/16 06:33:46;;;;;;;5.82;2.97;;;22.30;81.60;;;;;;5030866;28;20045;-83
2023/08/16 06:36:13;;;;;;;9.82;3.45;;;21.80;80.60;;;;;;5047795;28;20095;-77
2023/08/16 06:38:40;;;;;;;6.55;2.80;;;21.50;82.90;;;;;;5036634;28;20045;-80
2023/08/16 06:41:10;;;;;;;12.32;2.83;;;21.90;84.60;;;;;;5031116;28;20145;-81
2023/08/16 06:43:37;;;;;;;8.65;2.70;;;23.00;80.10;;;;;;5026982;28;20145;-81
2023/08/16 06:46:07;;;;;;;8.55;2.42;;;23.80;76.70;;;;;;5029799;28;20052;-82
2023/08/16 06:48:34;;;;;;;4.43;2.13;;;24.20;73.40;;;;;;5025602;28;20122;-81
2023/08/16 06:51:01;;;;;;;9.32;2.28;;;24.60;72.80;;;;;;5043816;28;20053;-83
2023/08/16 06:53:33;;;;;;;7.93;2.65;;;24.90;70.30;;;;;;5028052;28;20123;-80
2023/08/16 06:56:00;;;;;;;4.88;2.42;;;24.70;70.70;;;;;;5050658;28;20049;-81
2023/08/16 06:58:27;;;;;;;5.78;2.20;;;24.20;71.70;;;;;;5034985;28;20509;-80
2023/08/16 07:00:54;;;;;;;7.53;2.42;;;24.00;74.30;;;;;;5041914;28;20477;-83
2023/08/16 07:03:21;;;;;;;7.00;1.90;;;24.10;74.90;;;;;;5050661;28;20497;-81
2023/08/16 07:05:51;;;;;;;7.60;2.03;;;23.80;71.90;;;;;;5044063;28;20488;-80
2023/08/16 07:08:18;;;;;;;5.90;1.80;;;23.60;72.40;;;;;;5023166;28;20494;-80
2023/08/16 07:10:45;;;;;;;5.65;1.80;;;23.10;73.80;;;;;;5025744;28;20119;-80
2023/08/16 07:13:12;;;;;;;6.32;2.17;;;23.10;74.70;;;;;;5041368;28;20133;-79
2023/08/16 07:15:39;;;;;;;6.68;1.30;;;23.10;74.20;;;;;;5036186;28;20611;-79
2023/08/16 07:18:06;;;;;;;5.15;1.83;;;23.50;73.40;;;;;;5040602;28;20099;-79
2023/08/16 07:20:33;;;;;;;18.65;2.20;;;23.70;73.20;;;;;;5042091;28;20048;-79
2023/08/16 07:23:00;;;;;;;8.55;1.92;;;24.00;73.70;;;;;;5027092;28;20137;-80
2023/08/16 07:25:27;;;;;;;5.85;1.63;;;24.20;72.00;;;;;;5042609;28;20057;-79
2023/08/16 07:27:55;;;;;;;5.95;1.77;;;24.00;73.20;;;;;;5025951;28;20092;-80
2023/08/16 07:30:21;;;;;;;6.93;1.90;;;23.90;71.20;;;;;;5041421;28;20054;-80
2023/08/16 07:32:51;;;;;;;4.80;1.63;;;24.40;72.90;;;;;;5037576;28;20073;-77
2023/08/16 07:35:20;;;;;;;3.58;1.63;;;25.50;70.90;;;;;;5024124;28;20061;-80
2023/08/16 07:37:47;;;;;;;7.20;1.67;;;25.80;67.90;;;;;;5038745;28;20049;-81
2023/08/16 07:40:13;;;;;;;5.63;2.00;;;26.20;63.70;;;;;;5031871;28;20057;-81
2023/08/16 07:42:40;;;;;;;7.97;1.63;;;26.40;65.50;;;;;;5054591;28;20057;-81
2023/08/16 07:45:07;;;;;;;10.23;1.88;;;26.90;64.90;;;;;;5050209;28;20079;-83
2023/08/16 07:47:34;;;;;;;7.95;1.80;;;27.40;64.80;;;;;;5031973;28;20049;-81
2023/08/16 07:50:02;;;;;;;3.38;1.52;;;28.10;62.80;;;;;;5046580;28;20430;-80
2023/08/16 07:52:29;;;;;;;9.32;1.60;;;28.50;61.70;;;;;;5046122;28;20061;-79
2023/08/16 07:54:56;;;;;;;2.95;1.77;;;28.40;62.00;;;;;;5042148;28;20654;-80
2023/08/16 07:57:23;;;;;;;7.25;1.60;;;28.30;63.20;;;;;;5047394;28;20540;-80
2023/08/16 07:59:50;;;;;;;6.82;2.10;;;28.10;62.40;;;;;;5024147;28;20680;-81
2023/08/16 08:02:17;;;;;;;3.28;1.48;;;28.00;62.50;;;;;;5041045;28;20056;-79
2023/08/16 08:04:45;;;;;;;8.27;1.77;;;28.30;62.50;;;;;;5026686;28;20052;-77
2023/08/16 08:07:12;;;;;;;4.78;1.52;;;27.50;59.60;;;;;;5044393;28;20041;-79
2023/08/16 08:09:40;;;;;;;6.40;1.70;;;27.00;62.20;;;;;;5032874;28;20127;-80
2023/08/16 08:12:07;;;;;;;6.88;1.58;;;27.00;65.00;;;;;;5049928;28;20143;-81
2023/08/16 08:14:34;;;;;;;10.88;1.60;;;27.60;63.50;;;;;;5051967;28;20053;-82
2023/08/16 08:17:00;;;;;;;4.07;1.35;;;28.30;62.50;;;;;;5049333;28;20049;-81
2023/08/16 08:19:27;;;;;;;8.10;1.42;;;28.10;59.70;;;;;;5030574;28;20083;-79
2023/08/16 08:21:56;;;;;;;8.98;1.25;;;27.60;62.60;;;;;;5031495;28;20051;-78
2023/08/16 08:24:22;;;;;;;4.15;1.17;;;28.20;60.20;;;;;;5031200;28;20131;-79
2023/08/16 08:26:49;;;;;;;5.78;1.30;;;28.40;58.80;;;;;;5050036;28;20082;-80
2023/08/16 08:29:17;;;;;;;5.85;1.45;;;27.50;56.80;;;;;;5028780;28;20086;-81
2023/08/16 08:31:45;;;;;;;3.42;1.00;;;28.20;57.80;;;;;;5037683;28;20049;-80
2023/08/16 08:34:14;;;;;;;2.15;0.80;;;28.20;59.40;;;;;;5047187;28;20460;-80
2023/08/16 08:36:41;;;;;;;6.32;1.13;;;27.50;55.80;;;;;;5048515;28;20056;-79
2023/08/16 08:39:08;;;;;;;4.28;1.13;;;28.20;57.40;;;;;;5033247;28;20045;-79
2023/08/16 08:41:35;;;;;;;9.27;1.45;;;28.60;55.00;;;;;;5033088;28;20107;-80
2023/08/16 08:44:18;;;;;;;9.95;1.67;;;28.60;57.30;;;;;;5055170;28;20041;-81
2023/08/16 08:46:46;;;;;;;5.45;1.42;;;27.80;58.50;;;;;;5051726;28;20055;-80
2023/08/16 08:49:20;;;;;;;6.60;1.42;;;28.30;60.90;;;;;;5050909;28;20040;-80
2023/08/16 08:51:47;;;;;;;7.97;1.67;;;28.70;58.50;;;;;;5047156;28;20037;-78
2023/08/16 08:54:14;;;;;;;3.97;1.70;;;29.50;58.50;;;;;;5065562;22;20049;-80
2023/08/16 08:56:42;;;;;;;6.88;1.13;;;29.20;54.40;;;;;;5040251;28;20103;-80
2023/08/16 08:59:11;;;;;;;4.82;1.20;;;29.20;55.40;;;;;;5056769;28;20095;-81
2023/08/16 09:01:43;;;;;;;7.50;1.67;;;29.30;57.70;;;;;;5033423;28;20049;-83
2023/08/16 09:04:12;;;;;;;4.93;1.10;;;30.30;55.40;;;;;;5034085;28;20052;-79
2023/08/16 09:06:41;;;;;;;8.02;1.63;;;30.40;52.90;;;;;;5048836;28;20058;-80
2023/08/16 09:09:11;;;;;;;3.13;1.20;;;30.10;53.90;;;;;;5034949;28;20045;-82
2023/08/16 09:11:38;;;;;;;6.80;1.50;;;29.90;54.10;;;;;;5050627;28;20468;-84
2023/08/16 09:14:05;;;;;;;4.95;1.35;;;29.80;53.10;;;;;;5044607;28;20516;-83
2023/08/16 09:16:32;;;;;;;5.55;1.10;;;29.70;55.40;;;;;;5052420;28;20123;-81
2023/08/16 09:18:59;;;;;;;5.57;1.70;;;30.00;55.30;;;;;;5035405;28;20083;-81
2023/08/16 09:21:28;;;;;;;6.80;1.90;;;29.40;55.20;;;;;;5052038;28;20052;-79
2023/08/16 09:23:59;;;;;;;5.50;1.38;;;29.30;54.80;;;;;;5033602;28;20102;-81
2023/08/16 09:26:27;;;;;;;3.00;1.10;;;30.10;55.70;;;;;;5033459;28;20064;-80
2023/08/16 09:29:02;;;;;;;3.78;1.50;;;31.20;55.10;;;;;;5048670;28;20045;-84
2023/08/16 09:31:37;;;;;;;5.75;1.50;;;31.30;53.30;;;;;;5038200;28;20044;-85
2023/08/16 09:34:06;;;;;;;6.10;1.77;;;31.20;49.60;;;;;;5030509;28;20041;-85
2023/08/16 09:36:36;;;;;;;6.45;1.58;;;29.80;53.50;;;;;;5041996;28;20048;-81
2023/08/16 09:39:10;;;;;;;3.47;1.20;;;29.30;54.10;;;;;;5053929;28;20045;-83
2023/08/16 09:41:50;;;;;;;6.30;1.08;;;29.50;54.50;;;;;;5054698;28;20061;-84
2023/08/16 09:44:18;;;;;;;3.28;1.50;;;30.10;53.70;;;;;;5031743;28;20041;-83
2023/08/16 09:46:46;;;;;;;7.85;1.52;;;30.20;51.90;;;;;;5050885;28;20059;-79
2023/08/16 09:49:16;;;;;;;8.27;1.40;;;30.90;50.90;;;;;;5030138;28;20686;-81
2023/08/16 09:51:45;;;;;;;4.13;0.95;;;31.40;49.70;;;;;;5032484;28;20156;-83
2023/08/16 09:54:17;;;;;;;6.40;1.30;;;31.90;50.60;;;;;;5049855;28;20056;-82
2023/08/16 09:56:45;;;;;;;4.18;1.58;;;31.80;49.30;;;;;;5031110;28;20107;-84
2023/08/16 09:59:19;;;;;;;4.15;1.73;;;32.50;50.00;;;;;;5046361;28;21317;-85
2023/08/16 10:01:49;;;;;;;4.90;1.80;;;33.10;49.40;;;;;;5034318;28;20053;-83
2023/08/16 10:04:20;;;;;;;4.47;2.25;;;33.20;47.40;;;;;;5052044;28;20736;-85
2023/08/16 10:07:08;;;;;;;4.43;1.10;;;33.40;47.40;;;;;;5026540;28;20048;-87
2023/08/16 10:09:41;;;;;;;3.13;1.30;;;33.30;48.30;;;;;;5048319;28;20077;-86
2023/08/16 10:12:09;;;;;;;4.55;1.75;;;33.70;46.30;;;;;;5047686;28;20041;-86
2023/08/16 10:14:40;;;;;;;6.45;1.55;;;33.70;46.40;;;;;;5035002;28;20053;-86
2023/08/16 10:17:08;;;;;;;7.13;1.30;;;34.40;46.80;;;;;;5034589;28;20080;-85
2023/08/16 10:19:41;;;;;;;9.18;1.70;;;34.40;47.80;;;;;;5049731;28;20160;-86
2023/08/16 10:22:21;;;;;;;5.97;1.45;;;34.30;46.30;;;;;;5050151;28;20045;-86
2023/08/16 10:25:06;;;;;;;8.85;2.28;;;34.10;47.30;;;;;;5047648;28;20049;-85
2023/08/16 10:27:36;;;;;;;3.50;1.58;;;33.80;47.90;;;;;;5034957;28;20474;-86
2023/08/16 10:30:09;;;;;;;6.60;1.70;;;32.30;48.20;;;;;;5052317;28;20045;-85
2023/08/16 10:32:42;;;;;;;4.53;1.30;;;32.00;50.60;;;;;;5049822;28;20509;-86
2023/08/16 10:35:10;;;;;;;5.80;1.73;;;32.30;50.00;;;;;;5050360;28;20284;-86
2023/08/16 10:37:37;;;;;;;2.97;1.20;;;32.30;50.80;;;;;;5051707;28;20045;-87
2023/08/16 10:40:17;;;;;;;4.15;1.60;;;33.30;49.30;;;;;;5043323;28;20466;-86
2023/08/16 10:42:58;;;;;;;3.67;1.27;;;33.30;49.00;;;;;;5047220;28;20052;-86
2023/08/16 10:45:33;;;;;;;4.72;1.30;;;33.70;48.70;;;;;;5031979;28;20049;-86
2023/08/16 10:48:11;;;;;;;10.43;1.20;;;33.00;47.80;;;;;;5047848;28;20154;-86
2023/08/16 10:50:38;;;;;;;;;;;32.50;48.20;;;;;;5028952;28;20072;-78
2023/08/16 10:53:05;;;;;;;4.85;1.52;;;32.10;48.60;;;;;;5045081;28;19925;-79
2023/08/16 10:55:33;;;;;;;15.93;1.80;;;31.90;49.90;;;;;;5045341;28;20452;-79
2023/08/16 10:58:00;;;;;;;5.10;1.40;;;33.10;50.20;;;;;;5026263;28;20056;-80
2023/08/16 11:00:34;;;;;;;5.60;1.88;;;33.90;48.80;;;;;;5026529;28;20061;-80
2023/08/16 11:03:04;;;;;;;7.55;1.40;;;33.80;45.60;;;;;;5026558;28;20057;-80
2023/08/16 11:05:33;;;;;;;5.78;1.80;;;33.40;47.40;;;;;;5045212;28;20057;-80
2023/08/16 11:08:01;;;;;;;9.02;1.80;;;33.40;46.70;;;;;;5025501;28;20145;-80
2023/08/16 11:10:35;;;;;;;5.47;1.67;;;33.90;46.30;;;;;;5042950;28;20136;-79
2023/08/16 11:13:03;;;;;;;3.13;1.30;;;34.40;43.70;;;;;;5044007;28;20547;-81
2023/08/16 11:15:31;;;;;;;3.33;1.38;;;33.10;44.00;;;;;;5046187;28;20290;-79
2023/08/16 11:17:59;;;;;;;4.80;1.30;;;31.90;49.90;;;;;;5046705;28;20056;-80
2023/08/16 11:20:36;;;;;;;5.68;1.38;;;32.10;47.30;;;;;;5029308;28;20057;-80
2023/08/16 11:23:04;;;;;;;8.02;1.50;;;32.30;49.60;;;;;;5025826;28;20106;-80
2023/08/16 11:25:34;;;;;;;3.72;1.30;;;32.50;46.80;;;;;;5046033;28;20052;-80
2023/08/16 11:28:03;;;;;;;2.60;1.10;;;32.90;44.70;;;;;;5028906;28;20310;-80
2023/08/16 11:30:34;;;;;;;4.32;1.08;;;33.30;46.80;;;;;;5026668;28;20052;-79
2023/08/16 11:33:16;;;;;;;5.80;1.98;;;33.80;45.70;;;;;;5025415;28;20054;-80
2023/08/16 11:35:43;;;;;;;3.78;1.08;;;33.50;45.60;;;;;;5025597;28;20041;-80
2023/08/16 11:38:14;;;;;;;6.88;1.40;;;33.70;45.40;;;;;;5044536;28;21361;-80
2023/08/16 11:40:47;;;;;;;6.72;1.05;;;34.00;44.30;;;;;;5044902;28;20052;-80
2023/08/16 11:43:15;;;;;;;12.57;1.83;;;33.60;47.40;;;;;;5025687;28;20049;-80
2023/08/16 11:45:42;;;;;;;2.55;1.05;;;34.70;45.50;;;;;;5026458;28;20055;-80
2023/08/16 11:48:09;;;;;;;3.13;1.10;;;35.10;42.90;;;;;;5028115;28;20048;-80
2023/08/16 11:50:37;;;;;;;7.22;1.08;;;34.70;42.90;;;;;;5027971;28;20083;-81
2023/08/16 11:53:05;;;;;;;1.73;1.15;;;35.00;42.80;;;;;;5043109;28;20049;-84
2023/08/16 11:55:33;;;;;;;2.60;1.15;;;34.70;43.10;;;;;;5032722;28;20061;-84
2023/08/16 11:58:10;;;;;;;2.00;1.13;;;35.60;42.20;;;;;;5029759;28;20060;-86
2023/08/16 12:00:38;;;;;;;5.03;1.30;;;35.30;43.50;;;;;;5027783;28;20048;-85
2023/08/16 12:03:10;;;;;;;4.97;1.30;;;36.10;42.70;;;;;;5033326;28;20053;-83
2023/08/16 12:05:39;;;;;;;5.07;1.38;;;35.80;41.40;;;;;;5050714;28;20078;-83
2023/08/16 12:08:08;;;;;;;5.85;1.35;;;34.80;43.10;;;;;;5050560;28;20048;-83
2023/08/16 12:10:35;;;;;;;2.40;1.20;;;34.80;43.40;;;;;;5050438;28;20048;-83
2023/08/16 12:13:13;;;;;;;5.50;1.20;;;34.90;42.40;;;;;;5033091;28;20441;-83
2023/08/16 12:15:42;;;;;;;3.33;1.35;;;33.40;42.10;;;;;;5050036;28;20097;-83
2023/08/16 12:18:10;;;;;;;1.30;0.95;;;32.30;42.90;;;;;;5044679;28;20049;-83
2023/08/16 12:20:37;;;;;;;4.00;1.10;;;31.30;46.00;;;;;;5049942;28;20055;-83
2023/08/16 12:23:04;;;;;;;6.57;1.27;;;30.50;45.60;;;;;;5050240;28;20528;-82
2023/08/16 12:25:31;;;;;;;7.70;1.27;;;30.40;48.80;;;;;;5032658;28;20148;-83
2023/08/16 12:27:58;;;;;;;5.45;1.98;;;31.80;46.00;;;;;;5050179;28;20140;-84
2023/08/16 12:30:25;;;;;;;3.22;1.02;;;32.70;44.50;;;;;;5031759;28;20107;-85
2023/08/16 12:32:52;;;;;;;2.92;1.13;;;32.80;45.20;;;;;;5035854;28;20122;-85
2023/08/16 12:35:19;;;;;;;3.90;1.15;;;34.40;43.10;;;;;;5049895;28;20077;-83
2023/08/16 12:37:46;;;;;;;2.72;1.30;;;34.20;42.40;;;;;;5043889;28;20052;-82
2023/08/16 12:40:13;;;;;;;9.82;1.35;;;34.40;42.00;;;;;;5032459;28;20467;-83